createdAt,value
2023-04-11T00:00:01.378Z,3.7
2023-04-11T00:05:54.295Z,3.8
2023-04-11T00:11:46.551Z,3.8
2023-04-11T00:17:38.722Z,3.8
2023-04-11T00:23:30.851Z,3.8
2023-04-11T00:29:23.073Z,3.8
2023-04-11T00:35:14.082Z,3.8
2023-04-11T00:41:05.808Z,3.8
2023-04-11T00:46:57.548Z,3.9
2023-04-11T00:52:49.407Z,3.9
2023-04-11T00:58:39.935Z,4
2023-04-11T01:04:35.268Z,4
2023-04-11T01:10:26.823Z,4.1
2023-04-11T01:16:18.803Z,4.2
2023-04-11T01:21:56.320Z,4.3
2023-04-11T01:27:31.569Z,4.3
2023-04-11T01:33:23.830Z,4.3
2023-04-11T01:39:00.160Z,4.3
2023-04-11T01:44:36.858Z,4.3
2023-04-11T01:50:28.106Z,4.4
2023-04-11T01:56:19.591Z,4.4
2023-04-11T02:01:55.748Z,4.4
2023-04-11T02:07:48.784Z,4.4
2023-04-11T02:13:40.920Z,4.3
2023-04-11T02:19:32.904Z,4.3
2023-04-11T02:25:25.012Z,4.3
2023-04-11T02:31:16.955Z,4.3
2023-04-11T02:37:08.508Z,4.3
2023-04-11T02:42:59.127Z,4.3
2023-04-11T02:49:03.795Z,4.3
2023-04-11T02:54:54.924Z,4.3
2023-04-11T03:00:46.250Z,4.3
2023-04-11T03:06:24.414Z,4.4
2023-04-11T03:12:16.002Z,4.4
2023-04-11T03:18:07.848Z,4.4
2023-04-11T03:23:59.510Z,4.4
2023-04-11T03:29:51.260Z,4.4
2023-04-11T03:35:42.957Z,4.4
2023-04-11T03:41:19.328Z,4.4
2023-04-11T03:47:11.292Z,4.4
2023-04-11T03:53:05.696Z,4.4
2023-04-11T03:59:00.676Z,4.4
2023-04-11T04:04:39.173Z,4.4
2023-04-11T04:10:31.570Z,4.4
2023-04-11T04:16:23.399Z,4.4
2023-04-11T04:22:15.124Z,4.5
2023-04-11T04:28:07.126Z,4.6
2023-04-11T04:34:04.102Z,4.6
2023-04-11T04:39:55.694Z,4.6
2023-04-11T04:45:47.451Z,4.6
2023-04-11T04:51:25.018Z,4.8
2023-04-11T04:57:01.871Z,4.8
2023-04-11T05:02:53.868Z,5
2023-04-11T05:08:48.298Z,5.2
2023-04-11T05:14:41.931Z,5.5
2023-04-11T05:20:33.995Z,6.1
2023-04-11T05:26:26.010Z,6.9
2023-04-11T05:32:17.544Z,8
2023-04-11T05:38:08.995Z,9.3
2023-04-11T05:44:00.915Z,10.9
2023-04-11T05:49:51.850Z,13
2023-04-11T05:55:43.843Z,15.4
2023-04-11T06:01:42.796Z,17.5
2023-04-11T06:07:20.912Z,19
2023-04-11T06:13:14.663Z,21.1
2023-04-11T06:19:09.628Z,24.1
2023-04-11T06:25:00.194Z,29.3
2023-04-11T06:30:51.812Z,34.9
2023-04-11T06:36:44.279Z,38.8
2023-04-11T06:42:36.644Z,41.2
2023-04-11T06:48:13.132Z,44.4
2023-04-11T06:53:49.806Z,47.7
2023-04-11T06:59:41.868Z,47.4
2023-04-11T07:05:37.565Z,45.8
2023-04-11T07:11:31.293Z,43.4
2023-04-11T07:17:23.662Z,41.8
2023-04-11T07:23:15.269Z,41.8
2023-04-11T07:29:10.036Z,43.4
2023-04-11T07:35:02.650Z,45.3
2023-04-11T07:40:38.685Z,45.8
2023-04-11T07:46:30.528Z,46.9
2023-04-11T07:52:22.089Z,50.3
2023-04-11T07:58:12.866Z,52.3
2023-04-11T08:04:08.669Z,52
2023-04-11T08:10:00.910Z,49.7
2023-04-11T08:15:54.567Z,47
2023-04-11T08:21:57.932Z,44.3
2023-04-11T08:27:51.467Z,42
2023-04-11T08:33:30.608Z,39.9
2023-04-11T08:39:26.363Z,38.9
2023-04-11T08:45:17.970Z,40.4
2023-04-11T08:51:09.240Z,42.9
2023-04-11T08:57:01.131Z,49.3
2023-04-11T09:02:55.009Z,53.9
2023-04-11T09:08:46.250Z,54.1
2023-04-11T09:14:39.114Z,51.9
2023-04-11T09:20:38.605Z,52.6
2023-04-11T09:26:33.269Z,50.9
2023-04-11T09:32:25.616Z,49.1
2023-04-11T09:38:17.077Z,46.8
2023-04-11T09:44:11.013Z,47.2
2023-04-11T09:50:31.306Z,50.6
2023-04-11T09:56:40.112Z,58
2023-04-11T10:02:32.445Z,63.4
2023-04-11T10:08:25.889Z,47.7
2023-04-11T10:14:17.394Z,49.6
2023-04-11T10:20:13.631Z,56.3
2023-04-11T10:25:50.612Z,61.6
2023-04-11T10:31:41.970Z,55.3
2023-04-11T10:37:18.600Z,48.4
2023-04-11T10:42:55.578Z,51.6
2023-04-11T10:48:47.860Z,52.6
2023-04-11T10:54:39.356Z,58
2023-04-11T11:00:32.615Z,62.2
2023-04-11T11:07:03.050Z,48.4
2023-04-11T11:12:40.995Z,45.4
2023-04-11T11:18:33.621Z,43.9
2023-04-11T11:24:19.107Z,49.8
2023-04-11T11:30:10.610Z,55.5
2023-04-11T11:36:06.929Z,58.3
2023-04-11T11:41:58.312Z,64
2023-04-11T11:47:36.776Z,56.4
2023-04-11T11:53:13.913Z,45.8
2023-04-11T11:58:52.182Z,47.1
2023-04-11T12:04:46.140Z,47.6
2023-04-11T12:10:39.255Z,47.6
2023-04-11T12:16:01.784Z,51.9
2023-04-11T12:21:54.268Z,50.4
2023-04-11T12:27:52.813Z,49.1
2023-04-11T12:33:46.894Z,46.4
2023-04-11T12:39:41.564Z,49.8
2023-04-11T12:46:19.600Z,60.3
2023-04-11T12:51:40.868Z,68
2023-04-11T12:57:32.441Z,48.6
2023-04-11T13:03:33.907Z,45.6
2023-04-11T13:09:26.860Z,46.1
2023-04-11T13:15:33.858Z,44.6
2023-04-11T13:21:26.504Z,42.6
2023-04-11T13:27:18.968Z,40.3
2023-04-11T13:33:11.781Z,38.3
2023-04-11T13:39:05.669Z,36.5
2023-04-11T13:44:57.219Z,34.7
2023-04-11T13:50:33.963Z,33.2
2023-04-11T13:56:26.182Z,32.4
2023-04-11T14:02:32.209Z,31.3
2023-04-11T14:08:27.568Z,30.4
2023-04-11T14:14:19.532Z,29.6
2023-04-11T14:20:22.918Z,28.7
2023-04-11T14:26:16.194Z,28.2
2023-04-11T14:32:09.486Z,27.9
2023-04-11T14:38:01.573Z,28.3
2023-04-11T14:43:53.074Z,28.3
2023-04-11T14:49:48.129Z,27.9
2023-04-11T14:55:39.571Z,27.1
2023-04-11T15:01:31.179Z,26.3
2023-04-11T15:07:25.736Z,25.3
2023-04-11T15:13:17.488Z,24.3
2023-04-11T15:19:11.847Z,23.6
2023-04-11T15:25:03.693Z,23
2023-04-11T15:30:55.659Z,22.4
2023-04-11T15:36:50.584Z,21.9
2023-04-11T15:42:26.869Z,21.3
2023-04-11T15:48:19.290Z,20.9
2023-04-11T15:54:11.700Z,20.4
2023-04-11T16:00:03.793Z,19.9
2023-04-11T16:05:46.492Z,19.4
2023-04-11T16:11:38.162Z,18.9
2023-04-11T16:17:15.066Z,18.3
2023-04-11T16:23:07.286Z,17.6
2023-04-11T16:28:59.550Z,17.1
2023-04-11T16:34:54.040Z,16.4
2023-04-11T16:40:48.329Z,15.8
2023-04-11T16:45:55.826Z,15.3
2023-04-11T16:51:17.630Z,14.8
2023-04-11T16:57:09.325Z,14.3
2023-04-11T17:03:02.615Z,13.8
2023-04-11T17:08:55.747Z,13.3
2023-04-11T17:14:16.964Z,12.9
2023-04-11T17:19:53.558Z,12.4
2023-04-11T17:25:44.543Z,12.1
2023-04-11T17:31:37.967Z,11.7
2023-04-11T17:37:29.737Z,11.4
2023-04-11T17:43:32.146Z,11.1
2023-04-11T17:49:16.826Z,10.8
2023-04-11T17:55:04.871Z,10.7
2023-04-11T18:01:12.036Z,10.6
2023-04-11T18:07:08.297Z,10.4
2023-04-11T18:12:47.278Z,10.3
2023-04-11T18:18:24.313Z,10.2
2023-04-11T18:23:45.284Z,10.1
2023-04-11T18:29:21.535Z,10
2023-04-11T18:35:28.568Z,9.9
2023-04-11T18:41:24.537Z,9.8
2023-04-11T18:47:09.891Z,9.7
2023-04-11T18:52:53.846Z,9.6
2023-04-11T18:58:53.451Z,9.6
2023-04-11T19:04:47.282Z,9.4
2023-04-11T19:10:26.346Z,9.4
2023-04-11T19:16:04.441Z,9.3
2023-04-11T19:21:43.129Z,9.2
2023-04-11T19:27:21.101Z,9.1
2023-04-11T19:32:59.121Z,8.9
2023-04-11T19:38:36.832Z,8.8
2023-04-11T19:43:59.248Z,8.7
2023-04-11T19:49:37.882Z,8.6
2023-04-11T19:55:17.242Z,8.4
2023-04-11T20:00:55.505Z,8.3
2023-04-11T20:06:22.024Z,8.2
2023-04-11T20:12:00.690Z,8.1
2023-04-11T20:17:38.220Z,8
2023-04-11T20:22:59.829Z,7.9
2023-04-11T20:28:36.541Z,7.8
2023-04-11T20:34:14.008Z,7.7
2023-04-11T20:39:53.093Z,7.6
2023-04-11T20:45:29.595Z,7.6
2023-04-11T20:51:07.200Z,7.5
2023-04-11T20:56:43.295Z,7.4
2023-04-11T21:02:20.007Z,7.4
2023-04-11T21:08:13.325Z,7.3
2023-04-11T21:14:04.566Z,7.3
2023-04-11T21:19:55.721Z,7.2
2023-04-11T21:25:47.396Z,7.1
2023-04-11T21:31:24.256Z,7.1
2023-04-11T21:37:16.153Z,6.9
2023-04-11T21:43:08.174Z,6.9
2023-04-11T21:49:00.352Z,6.9
2023-04-11T21:54:51.933Z,6.9
2023-04-11T22:00:56.942Z,6.9
2023-04-11T22:07:02.804Z,6.9
2023-04-11T22:13:04.667Z,6.9
2023-04-11T22:18:57.424Z,6.9
2023-04-11T22:24:49.255Z,6.8
2023-04-11T22:30:40.669Z,6.8
2023-04-11T22:36:18.090Z,6.8
2023-04-11T22:42:09.194Z,6.9
2023-04-11T22:48:01.319Z,6.9
2023-04-11T22:53:53.461Z,6.9
2023-04-11T22:59:44.010Z,6.9
2023-04-11T23:05:35.901Z,6.9
2023-04-11T23:11:13.021Z,6.9
2023-04-11T23:17:04.971Z,6.9
2023-04-11T23:22:40.362Z,6.9
2023-04-11T23:28:32.092Z,6.9
2023-04-11T23:34:23.667Z,6.9
2023-04-11T23:39:59.666Z,6.8
2023-04-11T23:45:05.683Z,6.8
2023-04-11T23:50:26.074Z,6.8
2023-04-11T23:55:46.642Z,6.8
